Time;durP1;ratioP1;P1;durP2;ratioP2;P2;SDS_P1;SDS_P2;PMS_P1;PMS_P2;Temp;Humidity;BMP_temperature;BMP_pressure;BME280_temperature;BME280_humidity;BME280_pressure;Samples;Min_cycle;Max_cycle;Signal;HPM_P1;HPM_P2
2022/01/03 00:00:27;;;;;;;0.00;0.00;;;9.10;99.90;;;;;;5155027;27;20183;-84
2022/01/03 00:02:55;;;;;;;0.05;0.00;;;9.20;99.90;;;;;;5154781;27;20049;-84
2022/01/03 00:05:21;;;;;;;0.00;0.00;;;9.20;99.90;;;;;;5136640;27;20092;-84
2022/01/03 00:07:47;;;;;;;0.00;0.00;;;9.20;99.90;;;;;;5154816;27;20477;-84
2022/01/03 00:10:15;;;;;;;0.00;0.00;;;9.20;99.90;;;;;;5137330;27;20058;-84
2022/01/03 00:12:43;;;;;;;0.22;0.00;;;9.20;99.90;;;;;;5155016;27;20090;-84
2022/01/03 00:15:13;;;;;;;0.20;0.20;;;9.30;99.90;;;;;;5154692;27;20397;-84
2022/01/03 00:17:39;;;;;;;0.05;0.05;;;9.30;99.90;;;;;;5136872;27;20057;-84
2022/01/03 00:20:06;;;;;;;1.45;0.10;;;9.30;99.90;;;;;;5137247;27;20070;-84
2022/01/03 00:22:40;;;;;;;0.00;0.00;;;9.30;99.90;;;;;;5154361;27;20038;-84
2022/01/03 00:25:15;;;;;;;0.00;0.00;;;9.30;99.90;;;;;;5137581;27;20082;-84
2022/01/03 00:27:57;;;;;;;0.00;0.00;;;9.30;99.90;;;;;;5154458;27;20043;-84
2022/01/03 00:30:24;;;;;;;0.20;0.20;;;9.40;99.90;;;;;;5154511;27;20049;-84
2022/01/03 00:32:51;;;;;;;0.00;0.00;;;9.40;99.90;;;;;;5137104;27;20050;-84
2022/01/03 00:35:20;;;;;;;0.52;0.52;;;9.40;99.90;;;;;;5136581;27;20443;-84
2022/01/03 00:37:47;;;;;;;0.25;0.25;;;9.50;99.90;;;;;;5136978;27;20043;-84
2022/01/03 00:40:18;;;;;;;0.00;0.00;;;9.40;99.90;;;;;;5136916;27;20046;-84
2022/01/03 00:42:44;;;;;;;0.00;0.00;;;9.40;99.90;;;;;;5154574;27;20146;-84
2022/01/03 00:45:10;;;;;;;0.00;0.00;;;9.50;99.90;;;;;;5154009;27;20043;-85
2022/01/03 00:47:36;;;;;;;0.03;0.00;;;9.60;99.90;;;;;;5136441;27;20055;-84
2022/01/03 00:50:07;;;;;;;0.00;0.00;;;9.50;99.90;;;;;;5135870;27;20066;-84
2022/01/03 00:52:32;;;;;;;1.08;0.30;;;9.50;99.90;;;;;;5137010;27;20050;-83
2022/01/03 00:54:58;;;;;;;0.10;0.10;;;9.50;99.90;;;;;;5154065;27;20043;-84
2022/01/03 00:57:39;;;;;;;0.00;0.00;;;9.50;99.90;;;;;;5154124;27;20518;-84
2022/01/03 01:00:09;;;;;;;0.00;0.00;;;9.50;99.90;;;;;;5136489;27;20141;-84
2022/01/03 01:02:36;;;;;;;3.42;1.10;;;9.60;99.90;;;;;;5136400;27;20470;-84
2022/01/03 01:05:04;;;;;;;0.15;0.15;;;9.60;99.90;;;;;;5136489;27;20046;-83
2022/01/03 01:07:31;;;;;;;0.00;0.00;;;9.60;99.90;;;;;;5136874;27;20101;-84
2022/01/03 01:10:01;;;;;;;0.00;0.00;;;9.60;99.90;;;;;;5136373;27;20057;-84
2022/01/03 01:12:29;;;;;;;0.10;0.10;;;9.70;99.90;;;;;;5136686;27;20091;-84
2022/01/03 01:14:55;;;;;;;3.20;0.80;;;9.60;99.90;;;;;;5153916;27;20402;-84
2022/01/03 01:17:22;;;;;;;0.00;0.00;;;9.60;99.90;;;;;;5140072;27;20049;-84
2022/01/03 01:19:48;;;;;;;0.80;0.60;;;9.70;99.90;;;;;;5157673;27;20170;-84
2022/01/03 01:22:14;;;;;;;0.25;0.22;;;9.70;99.90;;;;;;5140563;27;20047;-84
2022/01/03 01:25:10;;;;;;;0.85;0.65;;;9.70;99.90;;;;;;5140389;27;20042;-84
2022/01/03 01:27:48;;;;;;;0.00;0.00;;;9.60;99.90;;;;;;5157594;27;20054;-84
2022/01/03 01:30:23;;;;;;;0.10;0.10;;;9.70;99.90;;;;;;5140314;27;20558;-84
2022/01/03 01:33:04;;;;;;;3.95;0.57;;;9.70;99.90;;;;;;5140519;27;20050;-84
2022/01/03 01:35:35;;;;;;;0.22;0.22;;;9.70;99.90;;;;;;5140432;27;20069;-84
2022/01/03 01:38:02;;;;;;;0.22;0.22;;;9.70;99.90;;;;;;5157635;27;20062;-84
2022/01/03 01:40:29;;;;;;;0.40;0.40;;;9.70;99.90;;;;;;5140373;27;20047;-84
2022/01/03 01:42:56;;;;;;;0.00;0.00;;;9.70;99.90;;;;;;5157460;27;20042;-84
2022/01/03 01:45:26;;;;;;;0.00;0.00;;;9.70;99.90;;;;;;5157223;27;20053;-84
2022/01/03 01:47:57;;;;;;;0.17;0.17;;;9.70;99.90;;;;;;5157259;27;20546;-84
2022/01/03 01:50:26;;;;;;;3.60;0.95;;;9.70;99.90;;;;;;5157922;27;20042;-84
2022/01/03 01:52:56;;;;;;;0.00;0.00;;;9.70;99.90;;;;;;5140076;27;20489;-84
2022/01/03 01:55:22;;;;;;;0.77;0.77;;;9.70;99.90;;;;;;5157564;27;20383;-84
2022/01/03 01:58:04;;;;;;;0.30;0.30;;;9.80;99.90;;;;;;5157198;27;20050;-84
2022/01/03 02:00:33;;;;;;;1.60;0.35;;;9.70;99.90;;;;;;5140473;27;20419;-84
2022/01/03 02:03:05;;;;;;;1.08;0.55;;;9.70;99.90;;;;;;5139785;27;20155;-84
2022/01/03 02:05:38;;;;;;;0.00;0.00;;;9.80;99.90;;;;;;5156984;27;20091;-84
2022/01/03 02:08:09;;;;;;;0.15;0.15;;;9.80;99.90;;;;;;5140202;27;20485;-84
2022/01/03 02:11:02;;;;;;;2.00;0.45;;;9.80;99.90;;;;;;5156857;27;20089;-84
2022/01/03 02:13:29;;;;;;;0.00;0.00;;;9.70;99.90;;;;;;5157699;27;20054;-84
2022/01/03 02:16:00;;;;;;;0.00;0.00;;;9.80;99.90;;;;;;5139964;27;20113;-84
2022/01/03 02:18:26;;;;;;;0.10;0.10;;;9.80;99.90;;;;;;5157050;27;20049;-84
2022/01/03 02:20:52;;;;;;;4.18;0.60;;;9.80;99.90;;;;;;5139525;27;20066;-84
2022/01/03 02:23:18;;;;;;;0.00;0.00;;;9.70;99.90;;;;;;5156952;27;20125;-84
2022/01/03 02:25:44;;;;;;;0.30;0.10;;;9.60;99.90;;;;;;5156352;27;20130;-84
2022/01/03 02:28:10;;;;;;;0.10;0.10;;;9.60;99.90;;;;;;5156268;27;20474;-84
2022/01/03 02:30:36;;;;;;;11.68;1.17;;;9.60;99.90;;;;;;5156652;27;20497;-83
2022/01/03 02:33:03;;;;;;;1.38;0.25;;;9.60;99.90;;;;;;5156651;27;20046;-84
2022/01/03 02:35:29;;;;;;;0.00;0.00;;;9.60;99.90;;;;;;5139589;27;20042;-84
2022/01/03 02:37:55;;;;;;;6.93;0.68;;;9.50;99.90;;;;;;5156514;27;20386;-84
2022/01/03 02:40:22;;;;;;;14.13;2.22;;;9.50;99.90;;;;;;5156519;27;20179;-84
2022/01/03 02:42:48;;;;;;;0.40;0.40;;;9.40;99.90;;;;;;5156745;27;20053;-84
2022/01/03 02:45:17;;;;;;;0.00;0.00;;;9.30;99.90;;;;;;5139061;27;20047;-84
2022/01/03 02:47:56;;;;;;;0.00;0.00;;;9.30;99.90;;;;;;5156285;27;20050;-84
2022/01/03 02:50:24;;;;;;;0.00;0.00;;;9.30;99.90;;;;;;5139000;27;20583;-84
2022/01/03 02:52:49;;;;;;;0.40;0.10;;;9.30;99.90;;;;;;5155828;27;20046;-84
2022/01/03 02:55:16;;;;;;;0.38;0.30;;;9.30;99.90;;;;;;5156144;27;20081;-83
2022/01/03 02:57:48;;;;;;;0.00;0.00;;;9.40;99.90;;;;;;5156002;27;20043;-84
2022/01/03 03:00:23;;;;;;;0.00;0.00;;;9.30;99.90;;;;;;5156223;27;20081;-84
2022/01/03 03:02:49;;;;;;;;;;;9.30;99.90;;;;;;5155980;27;20477;-84
2022/01/03 03:05:16;;;;;;;0.25;0.25;;;9.30;99.90;;;;;;5155558;27;19974;-84
2022/01/03 03:07:42;;;;;;;7.47;0.85;;;9.30;99.90;;;;;;5155777;27;20145;-84
2022/01/03 03:10:11;;;;;;;0.65;0.22;;;9.20;99.90;;;;;;5138280;27;20119;-84
2022/01/03 03:12:37;;;;;;;0.00;0.00;;;9.20;99.90;;;;;;5156228;27;20051;-84
2022/01/03 03:15:05;;;;;;;0.00;0.00;;;9.20;99.90;;;;;;5156205;27;20428;-84
2022/01/03 03:17:31;;;;;;;0.00;0.00;;;9.20;99.90;;;;;;5138584;27;20046;-84
2022/01/03 03:20:02;;;;;;;1.60;1.45;;;9.30;99.90;;;;;;5155999;27;20385;-84
2022/01/03 03:22:30;;;;;;;0.00;0.00;;;9.20;99.90;;;;;;5156002;27;20050;-84
2022/01/03 03:25:05;;;;;;;0.20;0.20;;;9.20;99.90;;;;;;5138621;27;20039;-84
2022/01/03 03:27:30;;;;;;;;;;;9.20;99.90;;;;;;5155535;27;20088;-84
2022/01/03 03:29:57;;;;;;;0.00;0.00;;;9.20;99.90;;;;;;5138068;27;19966;-84
2022/01/03 03:32:25;;;;;;;0.10;0.10;;;9.20;99.90;;;;;;5137947;27;20042;-84
2022/01/03 03:34:51;;;;;;;0.00;0.00;;;9.20;99.90;;;;;;5138156;27;20035;-84
2022/01/03 03:37:17;;;;;;;0.10;0.10;;;9.30;99.90;;;;;;5155302;27;20047;-84
2022/01/03 03:39:44;;;;;;;0.00;0.00;;;9.20;99.90;;;;;;5155112;27;20110;-84
2022/01/03 03:42:11;;;;;;;0.00;0.00;;;9.10;99.90;;;;;;5137879;27;20085;-84
2022/01/03 03:44:38;;;;;;;0.43;0.43;;;9.30;99.90;;;;;;5137632;27;20172;-84
2022/01/03 03:47:05;;;;;;;2.15;0.47;;;9.30;99.90;;;;;;5137430;27;20506;-84
2022/01/03 03:49:31;;;;;;;0.00;0.00;;;9.30;99.90;;;;;;5155099;27;20081;-84
2022/01/03 03:51:58;;;;;;;0.00;0.00;;;9.40;99.90;;;;;;5137943;27;20046;-83
2022/01/03 03:54:24;;;;;;;0.13;0.13;;;9.30;99.90;;;;;;5155024;27;20481;-84
2022/01/03 03:56:50;;;;;;;0.03;0.03;;;9.30;99.90;;;;;;5137592;27;20046;-84
2022/01/03 03:59:15;;;;;;;0.00;0.00;;;9.30;99.90;;;;;;5137365;27;20042;-84
2022/01/03 04:01:41;;;;;;;0.03;0.03;;;9.30;99.90;;;;;;5137381;27;20149;-84
2022/01/03 04:04:07;;;;;;;1.23;0.43;;;9.20;99.90;;;;;;5154535;27;20095;-84
2022/01/03 04:06:33;;;;;;;2.35;0.65;;;9.40;99.90;;;;;;5136814;27;20046;-84
2022/01/03 04:08:59;;;;;;;1.77;0.55;;;9.30;99.90;;;;;;5137568;27;20497;-84
2022/01/03 04:11:25;;;;;;;1.15;0.85;;;9.30;99.90;;;;;;5154515;27;20477;-84
2022/01/03 04:13:50;;;;;;;0.00;0.00;;;9.20;99.90;;;;;;5154704;27;20099;-84
2022/01/03 04:16:16;;;;;;;3.08;0.73;;;9.40;99.90;;;;;;5154458;27;20108;-84
2022/01/03 04:18:42;;;;;;;7.88;0.43;;;9.40;99.90;;;;;;5137107;27;20464;-84
2022/01/03 04:21:08;;;;;;;0.28;0.20;;;9.30;99.90;;;;;;5137270;27;20086;-84
2022/01/03 04:23:34;;;;;;;1.13;0.70;;;9.30;99.90;;;;;;5154795;27;20074;-84
2022/01/03 04:26:00;;;;;;;0.00;0.00;;;9.30;99.90;;;;;;5154448;27;20099;-84
2022/01/03 04:28:25;;;;;;;0.20;0.20;;;9.40;99.90;;;;;;5137152;27;20450;-83
2022/01/03 04:30:51;;;;;;;0.15;0.15;;;9.40;99.90;;;;;;5137884;27;20393;-84
2022/01/03 04:33:17;;;;;;;0.00;0.00;;;9.30;99.90;;;;;;5136819;27;20401;-84
2022/01/03 04:35:43;;;;;;;1.40;0.73;;;9.30;99.90;;;;;;5136681;27;20045;-84
2022/01/03 04:38:10;;;;;;;1.75;0.52;;;9.50;99.90;;;;;;5154286;27;20042;-84
2022/01/03 04:40:36;;;;;;;0.55;0.55;;;9.30;99.90;;;;;;5137061;27;20042;-84
2022/01/03 04:43:02;;;;;;;0.00;0.00;;;9.30;99.90;;;;;;5136872;27;20055;-84
2022/01/03 04:45:28;;;;;;;9.82;1.25;;;9.30;99.90;;;;;;5136133;27;20051;-84
2022/01/03 04:47:54;;;;;;;0.00;0.00;;;9.30;99.90;;;;;;5137517;27;20050;-84
2022/01/03 04:50:20;;;;;;;2.17;1.15;;;9.40;99.90;;;;;;5137013;27;20394;-84
2022/01/03 04:52:45;;;;;;;0.13;0.13;;;9.40;99.90;;;;;;5141251;27;20054;-84
2022/01/03 04:55:11;;;;;;;0.13;0.10;;;9.60;99.90;;;;;;5158691;27;20047;-84
2022/01/03 04:57:37;;;;;;;0.00;0.00;;;9.40;99.90;;;;;;5141366;27;20035;-84
2022/01/03 05:00:05;;;;;;;0.00;0.00;;;9.30;99.90;;;;;;5140715;27;20060;-84
2022/01/03 05:02:31;;;;;;;0.20;0.20;;;9.40;99.90;;;;;;5158278;27;20053;-84
2022/01/03 05:04:57;;;;;;;0.10;0.10;;;9.40;99.90;;;;;;5141156;27;20039;-84
2022/01/03 05:07:22;;;;;;;0.00;0.00;;;9.40;99.90;;;;;;5158539;27;20038;-84
2022/01/03 05:09:48;;;;;;;1.02;0.60;;;9.40;99.90;;;;;;5158289;27;20034;-84
2022/01/03 05:12:16;;;;;;;0.30;0.17;;;9.40;99.90;;;;;;5141088;27;20082;-84
2022/01/03 05:14:42;;;;;;;1.27;0.98;;;9.40;99.90;;;;;;5157894;27;20494;-84
2022/01/03 05:17:08;;;;;;;0.43;0.35;;;9.40;99.90;;;;;;5140252;27;20054;-84
2022/01/03 05:19:34;;;;;;;0.00;0.00;;;9.40;99.90;;;;;;5158001;27;20434;-84
2022/01/03 05:22:00;;;;;;;0.00;0.00;;;9.40;99.90;;;;;;5157946;27;20125;-84
2022/01/03 05:24:25;;;;;;;0.20;0.20;;;9.50;99.90;;;;;;5157722;27;20046;-84
2022/01/03 05:26:51;;;;;;;6.65;0.32;;;9.50;99.90;;;;;;5157587;27;20382;-84
2022/01/03 05:29:17;;;;;;;0.00;0.00;;;9.50;99.90;;;;;;5157474;27;20045;-84
2022/01/03 05:31:43;;;;;;;0.10;0.10;;;9.40;99.90;;;;;;5140354;27;20039;-84
2022/01/03 05:34:09;;;;;;;0.50;0.47;;;9.40;99.90;;;;;;5140294;27;20047;-84
2022/01/03 05:36:34;;;;;;;0.00;0.00;;;9.40;99.90;;;;;;5140448;27;20049;-84
2022/01/03 05:39:00;;;;;;;0.82;0.40;;;9.40;99.90;;;;;;5157625;27;20047;-84
2022/01/03 05:41:26;;;;;;;2.08;1.02;;;9.40;99.90;;;;;;5140244;27;20042;-84
2022/01/03 05:43:52;;;;;;;0.10;0.10;;;9.40;99.90;;;;;;5157577;27;20397;-84
2022/01/03 05:46:18;;;;;;;0.00;0.00;;;9.40;99.90;;;;;;5157087;27;20485;-84
2022/01/03 05:48:44;;;;;;;1.20;0.47;;;9.30;99.90;;;;;;5157339;27;20039;-84
2022/01/03 05:51:10;;;;;;;7.32;0.90;;;9.30;99.90;;;;;;5157532;27;20094;-84
2022/01/03 05:53:35;;;;;;;0.30;0.30;;;9.30;99.90;;;;;;5140030;27;20488;-84
2022/01/03 05:56:04;;;;;;;0.05;0.05;;;9.30;99.90;;;;;;5139903;27;20182;-84
2022/01/03 05:58:29;;;;;;;0.00;0.00;;;9.30;99.90;;;;;;5139139;27;20114;-84
2022/01/03 06:00:55;;;;;;;0.00;0.00;;;9.20;99.90;;;;;;5119019;27;20120;-84
2022/01/03 06:03:23;;;;;;;0.45;0.28;;;9.20;99.90;;;;;;5119354;27;20045;-84
2022/01/03 06:08:21;;;;;;;0.00;0.00;;;9.20;99.90;;;;;;5136423;27;20039;-84
2022/01/03 06:10:47;;;;;;;1.58;0.82;;;9.10;99.90;;;;;;5119105;27;20486;-84
2022/01/03 06:13:14;;;;;;;0.32;0.30;;;9.00;99.90;;;;;;5136310;27;20043;-84
2022/01/03 06:15:41;;;;;;;4.50;0.82;;;9.10;99.90;;;;;;5119287;27;20039;-84
2022/01/03 06:18:10;;;;;;;0.35;0.35;;;9.00;99.90;;;;;;5118983;27;20050;-84
2022/01/03 06:20:41;;;;;;;0.40;0.40;;;9.00;99.90;;;;;;5135839;27;20150;-84
2022/01/03 06:23:09;;;;;;;0.22;0.00;;;9.10;99.90;;;;;;5118866;27;20051;-84
2022/01/03 06:25:35;;;;;;;0.68;0.32;;;9.10;99.90;;;;;;5133641;27;20046;-84
2022/01/03 06:28:01;;;;;;;0.00;0.00;;;9.00;99.90;;;;;;5138441;27;20046;-85
2022/01/03 06:30:26;;;;;;;1.13;0.63;;;9.00;99.90;;;;;;5138756;27;20078;-84
2022/01/03 06:32:52;;;;;;;5.75;1.25;;;9.20;99.90;;;;;;5155389;27;20058;-84
2022/01/03 06:35:18;;;;;;;0.00;0.00;;;9.10;99.90;;;;;;5156754;27;20114;-84
2022/01/03 06:37:44;;;;;;;7.13;1.88;;;9.10;99.90;;;;;;5156236;27;20051;-84
2022/01/03 06:40:10;;;;;;;1.65;1.30;;;9.10;99.90;;;;;;5139190;27;20042;-84
2022/01/03 06:42:36;;;;;;;0.00;0.00;;;9.10;99.90;;;;;;5156326;27;20102;-84
2022/01/03 06:45:02;;;;;;;0.00;0.00;;;9.10;99.90;;;;;;5138923;27;20038;-84
2022/01/03 06:47:28;;;;;;;1.30;0.98;;;9.10;99.90;;;;;;5138941;27;20055;-85
2022/01/03 06:49:54;;;;;;;0.57;0.55;;;9.10;99.90;;;;;;5139094;27;20057;-85
2022/01/03 06:52:20;;;;;;;2.72;1.17;;;9.40;99.90;;;;;;5139399;27;20046;-84
2022/01/03 06:54:45;;;;;;;0.05;0.05;;;9.10;99.90;;;;;;5138902;27;20050;-84
2022/01/03 06:57:11;;;;;;;1.20;1.10;;;9.10;99.90;;;;;;5138699;27;20047;-84
2022/01/03 06:59:37;;;;;;;1.65;0.10;;;9.00;99.90;;;;;;5156145;27;20090;-85
2022/01/03 07:02:04;;;;;;;0.00;0.00;;;9.00;99.90;;;;;;5138882;27;20057;-85
2022/01/03 07:04:29;;;;;;;0.00;0.00;;;9.10;99.90;;;;;;5138551;27;20106;-84
2022/01/03 07:06:55;;;;;;;0.45;0.45;;;9.10;99.90;;;;;;5137607;27;20058;-85
2022/01/03 07:09:21;;;;;;;0.00;0.00;;;9.10;99.90;;;;;;5155857;27;20043;-85
2022/01/03 07:11:46;;;;;;;0.00;0.00;;;9.10;99.90;;;;;;5155546;27;20047;-85
2022/01/03 07:19:37;;;;;;;0.28;0.28;;;9.30;99.90;;;;;;5156446;27;20055;-84
2022/01/03 07:22:04;;;;;;;1.08;0.35;;;9.30;99.90;;;;;;5155689;27;20137;-84
2022/01/03 07:24:32;;;;;;;1.95;0.70;;;9.30;99.90;;;;;;5155495;27;20043;-85
2022/01/03 07:27:01;;;;;;;0.00;0.00;;;9.20;99.90;;;;;;5155643;27;20051;-83
2022/01/03 07:29:27;;;;;;;0.00;0.00;;;9.40;99.90;;;;;;5137933;27;20145;-85
2022/01/03 07:31:52;;;;;;;1.52;0.80;;;9.40;99.90;;;;;;5137900;27;20133;-84
2022/01/03 07:34:18;;;;;;;0.47;0.47;;;9.50;99.90;;;;;;5138300;27;20054;-84
2022/01/03 07:36:44;;;;;;;0.00;0.00;;;9.40;99.90;;;;;;5155481;27;20049;-84
2022/01/03 07:39:11;;;;;;;0.10;0.10;;;9.40;99.90;;;;;;5137793;27;20046;-84
2022/01/03 07:41:37;;;;;;;0.10;0.10;;;9.50;99.90;;;;;;5137736;27;20397;-85
2022/01/03 07:44:03;;;;;;;3.35;1.05;;;9.50;99.90;;;;;;5137950;27;20039;-84
2022/01/03 07:46:28;;;;;;;12.57;1.65;;;9.50;99.90;;;;;;5154789;27;20504;-85
2022/01/03 07:48:54;;;;;;;0.47;0.47;;;9.60;99.90;;;;;;5155289;27;20049;-84
2022/01/03 07:51:20;;;;;;;0.00;0.00;;;9.50;99.90;;;;;;5137678;27;20073;-84
2022/01/03 07:53:45;;;;;;;0.25;0.25;;;9.60;99.90;;;;;;5155308;27;20092;-84
2022/01/03 07:56:11;;;;;;;0.00;0.00;;;9.60;99.90;;;;;;5154977;27;20459;-85
2022/01/03 07:58:37;;;;;;;0.15;0.15;;;9.70;99.90;;;;;;5137583;27;20051;-85
2022/01/03 08:01:04;;;;;;;3.15;0.68;;;9.50;99.90;;;;;;5137239;27;20047;-85
2022/01/03 08:03:30;;;;;;;0.35;0.35;;;9.80;99.90;;;;;;5137204;27;20507;-85
2022/01/03 08:05:56;;;;;;;0.00;0.00;;;9.50;99.90;;;;;;5137249;27;20126;-84
2022/01/03 08:08:23;;;;;;;0.03;0.03;;;9.70;99.90;;;;;;5154732;27;20078;-84
2022/01/03 08:10:49;;;;;;;5.05;1.45;;;9.70;99.90;;;;;;5137128;27;20122;-84
2022/01/03 08:13:14;;;;;;;0.00;0.00;;;9.70;99.90;;;;;;5154823;27;20046;-85
2022/01/03 08:15:41;;;;;;;0.00;0.00;;;9.80;99.90;;;;;;5154330;27;20046;-85
2022/01/03 08:18:07;;;;;;;0.00;0.00;;;9.70;99.90;;;;;;5137250;27;20050;-84
2022/01/03 08:20:33;;;;;;;0.20;0.10;;;9.50;99.90;;;;;;5137733;27;20038;-85
2022/01/03 08:22:59;;;;;;;1.35;0.57;;;9.90;99.90;;;;;;5154951;27;20087;-84
2022/01/03 08:25:25;;;;;;;0.43;0.43;;;9.80;99.90;;;;;;5153325;27;20394;-84
2022/01/03 08:27:51;;;;;;;0.32;0.32;;;9.80;99.90;;;;;;5154467;27;20046;-85
2022/01/03 08:30:17;;;;;;;0.52;0.32;;;10.20;99.90;;;;;;5154403;27;20371;-84
2022/01/03 08:32:43;;;;;;;9.10;0.50;;;9.80;99.90;;;;;;5154377;27;20494;-84
2022/01/03 08:35:09;;;;;;;0.10;0.10;;;9.90;99.90;;;;;;5137190;27;20043;-84
2022/01/03 08:37:35;;;;;;;0.00;0.00;;;9.90;99.90;;;;;;5154389;27;20125;-85
2022/01/03 08:40:04;;;;;;;0.00;0.00;;;9.90;99.90;;;;;;5137176;27;20138;-84
2022/01/03 08:42:35;;;;;;;0.13;0.03;;;10.10;99.90;;;;;;5154304;27;20039;-85
2022/01/03 08:45:03;;;;;;;0.10;0.08;;;9.90;99.90;;;;;;5154841;27;20049;-84
2022/01/03 08:47:29;;;;;;;0.98;0.65;;;9.90;99.90;;;;;;5136978;27;20394;-84
2022/01/03 08:49:55;;;;;;;0.00;0.00;;;10.20;99.90;;;;;;5137228;27;20045;-85
2022/01/03 08:52:20;;;;;;;8.43;1.70;;;9.70;99.90;;;;;;5136846;27;20363;-85
2022/01/03 08:54:46;;;;;;;0.00;0.00;;;10.00;99.90;;;;;;5136839;27;20129;-85
2022/01/03 08:57:12;;;;;;;0.32;0.10;;;10.00;99.90;;;;;;5153789;27;20050;-85
2022/01/03 08:59:39;;;;;;;0.45;0.45;;;10.00;99.90;;;;;;5136856;27;20098;-85
2022/01/03 09:02:04;;;;;;;0.32;0.32;;;10.20;99.90;;;;;;5136831;27;20047;-85
2022/01/03 09:04:30;;;;;;;1.88;0.73;;;10.20;99.90;;;;;;5136783;27;20115;-85
2022/01/03 09:06:58;;;;;;;0.00;0.00;;;10.10;99.90;;;;;;5136962;27;20046;-85
2022/01/03 09:09:26;;;;;;;0.10;0.10;;;10.00;99.90;;;;;;5137064;27;20081;-84
2022/01/03 09:11:52;;;;;;;0.25;0.25;;;10.00;99.90;;;;;;5153557;27;20051;-84
2022/01/03 09:14:17;;;;;;;4.65;0.68;;;10.10;99.90;;;;;;5136943;27;20151;-84
2022/01/03 09:16:43;;;;;;;0.17;0.17;;;10.20;99.90;;;;;;5136743;27;20092;-85
2022/01/03 09:19:09;;;;;;;0.00;0.00;;;10.10;99.90;;;;;;5136532;27;20468;-85
2022/01/03 09:21:34;;;;;;;0.00;0.00;;;10.10;99.90;;;;;;5154020;27;20039;-84
2022/01/03 09:24:21;;;;;;;0.17;0.17;;;10.10;99.90;;;;;;5154211;27;20415;-85
2022/01/03 09:29:32;;;;;;;1.45;1.35;;;10.10;99.90;;;;;;5153993;27;20474;-84
2022/01/03 09:31:57;;;;;;;0.43;0.30;;;10.10;99.90;;;;;;5153944;27;20042;-85
2022/01/03 09:34:23;;;;;;;0.05;0.05;;;10.20;99.90;;;;;;5136534;27;20069;-85
2022/01/03 09:36:49;;;;;;;0.10;0.10;;;10.10;99.90;;;;;;5154392;27;20126;-85
2022/01/03 09:39:14;;;;;;;0.60;0.43;;;10.20;99.90;;;;;;5157696;27;20043;-84
2022/01/03 09:41:52;;;;;;;2.30;0.98;;;10.10;99.90;;;;;;5157553;27;20031;-85
2022/01/03 09:44:21;;;;;;;0.25;0.25;;;10.10;99.90;;;;;;5140431;27;20494;-84
2022/01/03 09:46:49;;;;;;;3.92;1.63;;;10.10;99.90;;;;;;5140989;27;20103;-85
2022/01/03 09:49:16;;;;;;;11.85;1.52;;;10.20;99.90;;;;;;5140128;27;20478;-85
2022/01/03 09:51:44;;;;;;;0.00;0.00;;;10.20;99.90;;;;;;5157363;27;20371;-85
2022/01/03 09:54:13;;;;;;;1.35;0.98;;;10.20;99.90;;;;;;5139996;27;20491;-85
2022/01/03 09:56:40;;;;;;;0.13;0.08;;;10.50;99.90;;;;;;5140089;27;20053;-85
2022/01/03 09:59:07;;;;;;;0.35;0.35;;;10.20;99.90;;;;;;5157336;27;20045;-85
2022/01/03 10:01:33;;;;;;;6.50;1.00;;;10.30;99.90;;;;;;5156987;27;20485;-85
2022/01/03 10:04:01;;;;;;;9.32;0.88;;;10.30;99.90;;;;;;5139045;27;20414;-85
2022/01/03 10:06:27;;;;;;;0.52;0.52;;;10.50;99.90;;;;;;5139345;27;20043;-85
2022/01/03 10:08:54;;;;;;;0.30;0.25;;;10.30;99.90;;;;;;5157310;27;20043;-85
2022/01/03 10:11:21;;;;;;;0.00;0.00;;;10.50;99.90;;;;;;5139346;27;20054;-85
2022/01/03 10:13:47;;;;;;;0.00;0.00;;;10.40;99.90;;;;;;5157090;27;20482;-84
2022/01/03 10:16:13;;;;;;;0.10;0.10;;;10.40;99.90;;;;;;5156920;27;20054;-86
2022/01/03 10:18:39;;;;;;;0.57;0.32;;;10.40;99.90;;;;;;5139419;27;20054;-85
2022/01/03 10:21:07;;;;;;;0.57;0.57;;;10.30;99.90;;;;;;5139610;27;20047;-85
2022/01/03 10:23:34;;;;;;;1.85;0.47;;;10.60;99.90;;;;;;5157121;27;20046;-85
2022/01/03 10:26:17;;;;;;;0.15;0.13;;;10.40;99.90;;;;;;5156587;27;20042;-85
2022/01/03 10:28:44;;;;;;;1.55;0.40;;;10.40;99.90;;;;;;5139146;27;20050;-85
2022/01/03 10:31:15;;;;;;;0.10;0.10;;;10.50;99.90;;;;;;5138937;27;20046;-85
2022/01/03 10:33:40;;;;;;;3.72;1.48;;;10.70;99.90;;;;;;5156546;27;20130;-85
2022/01/03 10:36:11;;;;;;;0.00;0.00;;;10.70;99.90;;;;;;5156839;27;20142;-85
2022/01/03 10:38:45;;;;;;;4.18;1.35;;;10.70;99.90;;;;;;5139488;27;20046;-85
2022/01/03 10:41:23;;;;;;;1.50;0.43;;;10.80;99.90;;;;;;5156468;27;20431;-85
2022/01/03 10:43:57;;;;;;;1.55;0.30;;;10.80;99.90;;;;;;5139356;27;20606;-85
2022/01/03 10:46:32;;;;;;;0.00;0.00;;;10.60;99.90;;;;;;5138793;27;20070;-85
2022/01/03 10:49:19;;;;;;;3.30;0.70;;;10.60;99.90;;;;;;5155526;27;20138;-85
2022/01/03 10:51:46;;;;;;;0.00;0.00;;;10.80;99.90;;;;;;5138837;27;20042;-85
2022/01/03 10:54:15;;;;;;;0.52;0.28;;;11.20;99.90;;;;;;5138804;27;20039;-85
2022/01/03 10:56:51;;;;;;;2.97;1.27;;;11.30;99.90;;;;;;5138655;27;20061;-85
2022/01/03 10:59:18;;;;;;;0.30;0.30;;;11.50;99.90;;;;;;5156383;27;20050;-85
2022/01/03 11:01:53;;;;;;;0.13;0.13;;;11.60;99.90;;;;;;5138942;27;20051;-85
2022/01/03 11:04:51;;;;;;;0.43;0.43;;;11.50;99.90;;;;;;5138379;27;20397;-85
2022/01/03 11:10:43;;;;;;;2.95;1.33;;;11.70;99.90;;;;;;5139167;27;20046;-85
2022/01/03 11:13:19;;;;;;;2.05;0.57;;;11.70;99.90;;;;;;5155982;27;20057;-85
2022/01/03 11:16:02;;;;;;;0.32;0.28;;;11.60;99.90;;;;;;5155770;27;20043;-85
2022/01/03 11:18:36;;;;;;;0.85;0.32;;;11.60;99.90;;;;;;5138538;27;20386;-85
2022/01/03 11:21:19;;;;;;;1.95;0.60;;;11.60;99.90;;;;;;5138254;27;20093;-85
2022/01/03 11:23:58;;;;;;;13.80;1.33;;;11.70;99.90;;;;;;5156282;27;20411;-85
2022/01/03 11:26:26;;;;;;;0.00;0.00;;;11.70;99.90;;;;;;5137989;27;20039;-85
2022/01/03 11:28:52;;;;;;;0.22;0.22;;;11.50;99.90;;;;;;5138378;27;20115;-85
2022/01/03 11:31:20;;;;;;;1.83;1.00;;;11.50;99.90;;;;;;5137923;27;20485;-85
2022/01/03 11:33:48;;;;;;;7.53;0.50;;;11.50;99.90;;;;;;5138200;27;20054;-85
2022/01/03 11:36:16;;;;;;;0.10;0.10;;;11.70;99.90;;;;;;5138501;27;20393;-85
2022/01/03 11:38:45;;;;;;;0.90;0.38;;;11.80;99.90;;;;;;5155340;27;20050;-85
2022/01/03 11:41:11;;;;;;;0.05;0.05;;;11.80;99.90;;;;;;5155399;27;20039;-85
2022/01/03 11:43:42;;;;;;;0.00;0.00;;;12.20;99.90;;;;;;5155391;27;20050;-85
2022/01/03 11:46:08;;;;;;;0.15;0.15;;;11.90;99.90;;;;;;5138308;27;20046;-85
2022/01/03 11:48:35;;;;;;;12.63;1.20;;;12.10;99.90;;;;;;5137529;27;20043;-85
2022/01/03 11:51:11;;;;;;;0.52;0.52;;;12.10;99.90;;;;;;5155162;27;20085;-85
2022/01/03 11:53:45;;;;;;;7.25;1.27;;;11.90;99.90;;;;;;5138144;27;20047;-85
2022/01/03 11:56:22;;;;;;;0.20;0.20;;;12.20;99.90;;;;;;5154899;27;20050;-86
2022/01/03 12:03:36;;;;;;;0.55;0.45;;;12.70;99.90;;;;;;5137946;27;20087;-85
2022/01/03 12:04:40;;;;;;;6.68;1.25;;;13.00;99.90;;;;;;5154734;27;20053;-86
2022/01/03 12:07:14;;;;;;;0.00;0.00;;;13.30;99.90;;;;;;5137625;27;20118;-85
2022/01/03 12:09:50;;;;;;;0.00;0.00;;;13.40;99.90;;;;;;5137777;27;20055;-86
2022/01/03 12:12:37;;;;;;;0.10;0.00;;;13.50;99.90;;;;;;5137860;27;20047;-85
2022/01/03 12:15:04;;;;;;;1.60;0.82;;;13.70;99.90;;;;;;5154575;27;20047;-85
2022/01/03 12:17:47;;;;;;;0.00;0.00;;;13.30;99.90;;;;;;5137224;27;20043;-85
2022/01/03 12:20:13;;;;;;;0.17;0.15;;;13.20;99.90;;;;;;5137768;27;20046;-85
2022/01/03 12:23:01;;;;;;;0.00;0.00;;;13.30;99.90;;;;;;5136896;27;20039;-85
2022/01/03 12:25:32;;;;;;;1.00;0.20;;;13.30;99.90;;;;;;5154121;27;20554;-85
2022/01/03 12:28:00;;;;;;;0.57;0.57;;;13.30;99.90;;;;;;5154692;27;20134;-85
2022/01/03 12:30:30;;;;;;;0.10;0.10;;;13.40;99.90;;;;;;5137175;27;20541;-85
2022/01/03 12:33:06;;;;;;;2.05;1.20;;;13.30;99.90;;;;;;5137267;27;20046;-85
2022/01/03 12:35:33;;;;;;;0.00;0.00;;;13.20;99.90;;;;;;5154445;27;20050;-85
2022/01/03 12:38:05;;;;;;;0.30;0.30;;;13.10;99.90;;;;;;5137088;27;20085;-86
2022/01/03 12:40:48;;;;;;;0.30;0.30;;;13.30;99.90;;;;;;5136857;27;20043;-85
2022/01/03 12:43:15;;;;;;;0.38;0.00;;;13.00;99.90;;;;;;5154553;27;20553;-85
2022/01/03 12:45:44;;;;;;;0.57;0.30;;;12.70;99.90;;;;;;5153968;27;20394;-85
2022/01/03 12:50:40;;;;;;;0.57;0.57;;;12.40;99.90;;;;;;5153955;27;20498;-85
2022/01/03 12:53:09;;;;;;;0.85;0.75;;;12.50;99.90;;;;;;5154229;27;20129;-86
2022/01/03 12:55:37;;;;;;;2.63;1.17;;;12.30;99.90;;;;;;5154151;27;20039;-85
2022/01/03 12:58:03;;;;;;;0.20;0.20;;;12.20;99.90;;;;;;5136816;27;20099;-86
2022/01/03 13:00:40;;;;;;;0.00;0.00;;;12.20;99.90;;;;;;5136479;27;20477;-85
2022/01/03 13:03:32;;;;;;;0.00;0.00;;;12.10;99.90;;;;;;5154043;27;20506;-86
2022/01/03 13:06:13;;;;;;;0.00;0.00;;;12.00;99.90;;;;;;5136360;27;20058;-85
2022/01/03 13:08:48;;;;;;;1.80;0.17;;;12.00;99.90;;;;;;5136853;27;20051;-85
2022/01/03 13:11:20;;;;;;;0.00;0.00;;;11.80;99.90;;;;;;5136278;27;20538;-86
2022/01/03 13:13:51;;;;;;;0.25;0.25;;;11.80;99.90;;;;;;5141510;27;20385;-85
2022/01/03 13:16:33;;;;;;;0.32;0.20;;;11.60;99.90;;;;;;5140963;27;20102;-85
2022/01/03 13:19:08;;;;;;;0.00;0.00;;;11.60;99.90;;;;;;5141010;27;20058;-86